Aviation Digital Data Service (ADDS)

Output produced by METARs form (1814 UTC 20 January 2019)
found at http://www.aviationweather.gov/metar/data/
 
HEAX 201700Z 05004KT 9999 FEW020 15/10 Q1018 NOSIG
TAF HEAX 201700Z 2018/2124 VRB03KT 9999 FEW020 
     TEMPO 2100/2107 3000 BR NSC
       
HEBA 201700Z 04006KT 9999 SCT020 13/09 Q1018 NOSIG
TAF HEBA 201700Z 2018/2124 VRB03KT 9999 FEW020 
     TEMPO 2100/2107 3000 BR NSC
       
TAF HESN 201700Z 2018/2124 36010KT CAVOK
       
HEAT 201700Z 27008KT CAVOK 15/07 Q1020 NOSIG
TAF HEAT 201700Z 2018/2124 33012KT CAVOK
       
HECA 201800Z 04007KT 9999 FEW025 BKN070 15/09 Q1018 NOSIG
TAF HECA 201700Z 2018/2124 04007KT 6000 FEW025 
     TEMPO 2020/2107 VRB03KT 4000 HZ NSC 
     TEMPO 2100/2106 2000
       
HEAR 201700Z 00000KT CAVOK 13/07 Q1018 NOSIG
TAF HEAR 201700Z 2018/2124 32008KT 9999 SCT025
       
HEGN 201700Z 30003KT CAVOK 17/05 Q1017 NOSIG
TAF HEGN 201700Z 2018/2124 33012KT CAVOK
       
HELX 201700Z 35002KT 6000 NSC 17/05 Q1017 NOSIG
TAF HELX 201700Z 2018/2124 35006KT CAVOK
       
HEMM 201700Z 00000KT CAVOK 13/08 Q1019 NOSIG
TAF HEMM 201700Z 2018/2124 14011KT 9999 FEW020 
     BECMG 2106/2108 29010KT
       
HEPS 201700Z 04005KT CAVOK 15/11 Q1019 NOSIG
TAF HEPS 201700Z 2018/2124 05010KT 9999 SCT025
       
HESH 201700Z 34003KT CAVOK 18/08 Q1017 NOSIG
TAF HESH 201700Z 2018/2124 35010KT CAVOK
       
TAF HETB 201700Z 2018/2124 03015KT CAVOK